This is the latest recevied weather packets stored in our database for station/object K5RWS. If no packets are shown the sender has not sent any weather packets the latest 1 day(s).
| Time | Temp. | Humidity | Pressure | Rain* | Wind** | Luminosity | Snow |
|---|---|---|---|---|---|---|---|
| 1777988968 | 12.78° C | 54% | 1015.2 hPa | 0 mm | 3.13 m/s, 336° | 59 W/m² | - |
| 1777988665 | 12.78° C | 53% | 1015.3 hPa | 0 mm | 4.92 m/s, 286° | 60 W/m² | - |
| 1777988361 | 12.22° C | 53% | 1015 hPa | 0 mm | 3.58 m/s, 283° | 48 W/m² | - |
| 1777988059 | 12.22° C | 53% | 1015.2 hPa | 0 mm | 4.47 m/s, 305° | 39 W/m² | - |
| 1777987754 | 12.78° C | 53% | 1015.2 hPa | 0 mm | 2.68 m/s, 303° | 37 W/m² | - |
| 1777987451 | 12.78° C | 51% | 1015.2 hPa | 0 mm | 3.58 m/s, 267° | 47 W/m² | - |
| 1777987149 | 13.33° C | 48% | 1014.9 hPa | 0 mm | 4.47 m/s, 300° | 78 W/m² | - |
| 1777986845 | 13.89° C | 43% | 1015.2 hPa | 0 mm | 2.24 m/s, 287° | 77 W/m² | - |
| 1777986543 | 13.89° C | 38% | 1014.9 hPa | 0 mm | 0.45 m/s, 42° | 57 W/m² | - |
| 1777986241 | 13.89° C | 38% | 1014.6 hPa | 0 mm | 0 m/s | 39 W/m² | - |
| 1777985938 | 13.33° C | 38% | 1014.6 hPa | 0 mm | 0 m/s | 31 W/m² | - |
| 1777985636 | 13.33° C | 38% | 1014.3 hPa | 0 mm | 0 m/s | 27 W/m² | - |
| 1777985332 | 13.33° C | 38% | 1014.2 hPa | 0 mm | 0 m/s | 24 W/m² | - |
| 1777985029 | 13.33° C | 38% | 1014.5 hPa | 0 mm | 0 m/s | 15 W/m² | - |
| 1777984725 | 13.33° C | 38% | 1014.6 hPa | 0 mm | 0 m/s | 9 W/m² | - |
| 1777984422 | 13.33° C | 38% | 1014.6 hPa | 0 mm | 0 m/s | 8 W/m² | - |
| 1777984117 | 13.33° C | 37% | 1014.6 hPa | 0 mm | 0.45 m/s, 267° | 6 W/m² | - |
| 1777983815 | 13.33° C | 37% | 1014.3 hPa | 0 mm | 0.45 m/s, 246° | 3 W/m² | - |
| 1777983512 | 13.33° C | 37% | 1014.2 hPa | 0 mm | 0.89 m/s, 301° | 2 W/m² | - |
| 1777983209 | 13.89° C | 36% | 1014.2 hPa | 0 mm | 0.89 m/s, 281° | 1 W/m² | - |
| 1777982905 | 13.89° C | 36% | 1014.2 hPa | 0 mm | 0.89 m/s, 280° | 1 W/m² | - |
| 1777982601 | 13.89° C | 35% | 1014.1 hPa | 0 mm | 0.89 m/s, 267° | 0 W/m² | - |
| 1777982299 | 13.89° C | 36% | 1014 hPa | 0 mm | 0.89 m/s, 266° | 0 W/m² | - |
| 1777981997 | 13.89° C | 35% | 1014.1 hPa | 0 mm | 0.89 m/s, 263° | 0 W/m² | - |
| 1777981695 | 13.89° C | 35% | 1014.3 hPa | 0 mm | 0.89 m/s, 294° | 0 W/m² | - |
* Rain latest hour (hover to see other rain measurements)
** Current wind speed in m/s (hover to see current wind gust speed)